createdAt,value
2019-03-05T00:04:20.638Z,75.68
2019-03-05T00:09:22.620Z,75.37
2019-03-05T00:14:24.175Z,75.25
2019-03-05T00:19:25.773Z,75.41
2019-03-05T00:24:58.954Z,75.25
2019-03-05T00:30:48.528Z,75.17
2019-03-05T00:36:17.434Z,75.25
2019-03-05T00:41:56.000Z,75.03
2019-03-05T00:47:27.554Z,74.86
2019-03-05T00:53:11.090Z,74.88
2019-03-05T00:58:23.259Z,74.75
2019-03-05T01:03:59.958Z,74.68
2019-03-05T01:09:03.345Z,74.50
2019-03-05T01:14:04.874Z,74.29
2019-03-05T01:19:06.915Z,72.18
2019-03-05T01:24:08.454Z,72.95
2019-03-05T01:29:10.061Z,73.55
2019-03-05T01:34:12.080Z,73.66
2019-03-05T01:39:13.962Z,73.51
2019-03-05T01:44:15.618Z,73.47
2019-03-05T01:49:17.267Z,74.26
2019-03-05T01:54:18.797Z,74.69
2019-03-05T01:59:20.429Z,74.53
2019-03-05T02:04:22.379Z,74.86
2019-03-05T02:09:23.916Z,75.15
2019-03-05T02:14:25.951Z,75.45
2019-03-05T02:19:56.352Z,75.79
2019-03-05T02:25:41.212Z,75.75
2019-03-05T02:31:04.050Z,75.33
2019-03-05T02:36:14.448Z,75.08
2019-03-05T02:42:02.892Z,75.27
2019-03-05T02:47:35.564Z,75.43
2019-03-05T02:53:18.118Z,75.90
2019-03-05T02:58:18.628Z,76.17
2019-03-05T03:03:20.205Z,76.43
2019-03-05T03:08:21.822Z,76.57
2019-03-05T03:13:23.446Z,76.72
2019-03-05T03:18:25.009Z,77.02
2019-03-05T03:23:27.056Z,76.72
2019-03-05T03:28:28.706Z,76.67
2019-03-05T03:33:30.540Z,76.30
2019-03-05T03:38:32.085Z,76.28
2019-03-05T03:43:33.650Z,76.72
2019-03-05T03:48:35.181Z,76.54
2019-03-05T03:53:36.757Z,76.68
2019-03-05T03:58:38.706Z,76.65
2019-03-05T04:03:40.238Z,77.04
2019-03-05T04:08:41.774Z,77.17
2019-03-05T04:13:43.378Z,76.97
2019-03-05T04:18:44.986Z,77.09
2019-03-05T04:23:46.873Z,77.25
2019-03-05T04:28:48.839Z,77.48
2019-03-05T04:33:50.878Z,77.73
2019-03-05T04:38:52.482Z,77.91
2019-03-05T04:43:54.052Z,78.10
2019-03-05T04:48:56.020Z,78.23
2019-03-05T04:53:57.606Z,77.67
2019-03-05T04:58:59.184Z,77.84
2019-03-05T05:04:00.726Z,77.49
2019-03-05T05:09:03.514Z,77.38
2019-03-05T05:14:05.096Z,77.33
2019-03-05T05:19:06.684Z,77.30
2019-03-05T05:24:08.239Z,77.03
2019-03-05T05:29:09.842Z,76.67
2019-03-05T05:34:11.384Z,76.59
2019-03-05T05:39:52.538Z,76.41
2019-03-05T05:44:54.453Z,76.72
2019-03-05T05:49:56.459Z,76.68
2019-03-05T05:54:58.015Z,76.88
2019-03-05T05:59:59.601Z,77.13
2019-03-05T06:05:01.555Z,77.47
2019-03-05T06:10:03.646Z,77.55
2019-03-05T06:15:06.087Z,77.46
2019-03-05T06:20:08.881Z,77.58
2019-03-05T06:25:10.819Z,77.43
2019-03-05T06:30:13.045Z,77.27
2019-03-05T06:35:14.639Z,77.25
2019-03-05T06:40:16.288Z,77.69
2019-03-05T06:45:19.981Z,77.40
2019-03-05T06:50:21.595Z,77.26
2019-03-05T06:55:23.264Z,77.35
2019-03-05T07:00:25.188Z,77.10
2019-03-05T07:06:03.949Z,77.17
2019-03-05T07:11:14.366Z,77.10
2019-03-05T07:16:26.943Z,77.11
2019-03-05T07:22:03.845Z,77.25
2019-03-05T07:27:06.282Z,77.85
2019-03-05T07:32:07.889Z,78.22
2019-03-05T07:37:09.909Z,77.97
2019-03-05T07:42:11.505Z,77.13
2019-03-05T07:47:13.119Z,76.39
2019-03-05T07:52:14.701Z,76.14
2019-03-05T07:57:16.420Z,76.08
2019-03-05T08:02:18.019Z,75.87
2019-03-05T08:07:19.695Z,75.16
2019-03-05T08:12:53.776Z,75.00
2019-03-05T08:17:55.406Z,74.73
2019-03-05T08:22:57.020Z,74.43
2019-03-05T08:27:58.648Z,73.65
2019-03-05T08:33:00.175Z,74.25
2019-03-05T08:38:01.700Z,74.28
2019-03-05T08:43:03.406Z,74.21
2019-03-05T08:48:04.941Z,73.97
2019-03-05T08:53:06.547Z,74.87
2019-03-05T08:58:08.418Z,74.29
2019-03-05T09:03:09.985Z,73.72
2019-03-05T09:08:11.562Z,73.38
2019-03-05T09:13:13.077Z,73.57
2019-03-05T09:18:14.892Z,73.54
2019-03-05T09:23:16.458Z,72.98
2019-03-05T09:28:18.146Z,72.17
2019-03-05T09:33:21.542Z,71.96
2019-03-05T09:38:23.422Z,71.45
2019-03-05T09:43:24.996Z,70.87
2019-03-05T09:48:26.654Z,71.44
2019-03-05T09:53:28.278Z,71.18
2019-03-05T09:58:29.880Z,69.24
2019-03-05T10:03:31.926Z,68.75
2019-03-05T10:08:33.551Z,68.75
2019-03-05T10:13:35.601Z,67.78
2019-03-05T10:18:39.305Z,69.23
2019-03-05T10:23:40.680Z,69.23
2019-03-05T10:28:42.350Z,68.33
2019-03-05T10:33:44.046Z,67.75
2019-03-05T10:38:56.636Z,67.91
2019-03-05T10:43:49.182Z,68.54
2019-03-05T10:48:50.798Z,68.73
2019-03-05T10:53:52.856Z,66.23
2019-03-05T10:58:54.522Z,62.87
2019-03-05T11:03:56.123Z,65.03
2019-03-05T11:08:57.680Z,65.28
2019-03-05T11:13:59.278Z,62.78
2019-03-05T11:19:01.364Z,63.78
2019-03-05T11:24:03.402Z,65.01
2019-03-05T11:29:05.059Z,61.86
2019-03-05T11:34:06.982Z,63.25
2019-03-05T11:39:08.597Z,64.79
2019-03-05T11:44:10.244Z,64.93
2019-03-05T11:49:11.904Z,65.22
2019-03-05T11:54:13.603Z,63.82
2019-03-05T11:59:15.557Z,63.98
2019-03-05T12:04:17.236Z,65.46
2019-03-05T12:09:19.342Z,64.88
2019-03-05T12:14:20.931Z,63.71
2019-03-05T12:19:22.745Z,62.37
2019-03-05T12:24:25.634Z,62.13
2019-03-05T12:29:27.398Z,59.42
2019-03-05T12:34:28.991Z,64.21
2019-03-05T12:39:30.701Z,61.00
2019-03-05T12:44:32.467Z,61.11
2019-03-05T12:49:33.997Z,62.18
2019-03-05T12:54:35.595Z,63.17
2019-03-05T12:59:37.240Z,60.92
2019-03-05T13:04:38.813Z,62.41
2019-03-05T13:09:41.483Z,63.05
2019-03-05T13:14:43.873Z,63.67
2019-03-05T13:19:47.998Z,65.09
2019-03-05T13:24:50.255Z,62.88
2019-03-05T13:29:52.683Z,64.49
2019-03-05T13:34:54.219Z,63.72
2019-03-05T13:39:58.217Z,62.36
2019-03-05T13:44:59.664Z,63.09
2019-03-05T13:50:53.011Z,62.03
2019-03-05T13:56:21.779Z,60.03
2019-03-05T14:01:23.344Z,62.82
2019-03-05T14:07:11.782Z,63.01
2019-03-05T14:12:13.661Z,64.38
2019-03-05T14:17:15.391Z,59.85
2019-03-05T14:22:16.955Z,62.95
2019-03-05T14:27:18.495Z,60.90
2019-03-05T14:32:20.450Z,60.72
2019-03-05T14:37:22.162Z,55.97
2019-03-05T14:42:24.023Z,57.39
2019-03-05T14:47:25.601Z,56.45
2019-03-05T14:52:27.254Z,53.88
2019-03-05T14:57:28.801Z,56.12
2019-03-05T15:02:30.527Z,62.72
2019-03-05T15:07:32.464Z,61.11
2019-03-05T15:12:34.757Z,63.14
2019-03-05T15:17:36.339Z,56.58
2019-03-05T15:22:37.956Z,56.74
2019-03-05T15:27:39.564Z,57.81
2019-03-05T15:32:42.791Z,52.51
2019-03-05T15:37:44.767Z,60.80
2019-03-05T15:42:46.334Z,57.32
2019-03-05T15:47:47.954Z,56.59
2019-03-05T15:52:49.681Z,58.53
2019-03-05T15:57:51.269Z,57.54
2019-03-05T16:02:52.844Z,60.10
2019-03-05T16:07:56.526Z,58.43
2019-03-05T16:12:58.179Z,61.46
2019-03-05T16:18:01.381Z,62.78
2019-03-05T16:23:04.252Z,63.06
2019-03-05T16:28:07.389Z,60.27
2019-03-05T16:33:09.267Z,62.04
2019-03-05T16:38:10.875Z,64.22
2019-03-05T16:43:12.432Z,60.45
2019-03-05T16:48:14.055Z,61.97
2019-03-05T16:53:15.620Z,61.52
2019-03-05T16:58:17.202Z,64.76
2019-03-05T17:03:18.733Z,64.48
2019-03-05T17:08:20.341Z,65.42
2019-03-05T17:13:22.138Z,64.12
2019-03-05T17:18:24.639Z,65.23
2019-03-05T17:23:27.125Z,64.35
2019-03-05T17:28:28.666Z,65.01
2019-03-05T17:33:30.704Z,65.64
2019-03-05T17:38:32.246Z,65.99
2019-03-05T17:43:33.949Z,66.18
2019-03-05T17:48:35.625Z,61.79
2019-03-05T17:53:37.267Z,65.28
2019-03-05T17:58:39.627Z,66.32
2019-03-05T18:03:42.283Z,66.72
2019-03-05T18:08:44.226Z,67.19
2019-03-05T18:13:45.837Z,67.48
2019-03-05T18:18:47.418Z,67.72
2019-03-05T18:23:49.017Z,68.01
2019-03-05T18:28:50.557Z,68.07
2019-03-05T18:33:52.124Z,68.29
2019-03-05T18:38:54.157Z,68.47
2019-03-05T18:43:56.083Z,68.54
2019-03-05T18:48:57.742Z,68.48
2019-03-05T18:53:59.406Z,68.73
2019-03-05T18:59:01.036Z,68.88
2019-03-05T19:04:02.711Z,69.13
2019-03-05T19:09:04.870Z,69.22
2019-03-05T19:14:06.492Z,69.26
2019-03-05T19:19:08.116Z,69.41
2019-03-05T19:24:09.698Z,69.65
2019-03-05T19:29:12.068Z,69.84
2019-03-05T19:34:13.709Z,69.92
2019-03-05T19:39:15.791Z,70.06
2019-03-05T19:44:17.569Z,70.05
2019-03-05T19:49:19.323Z,70.15
2019-03-05T19:54:21.039Z,70.26
2019-03-05T19:59:22.605Z,70.52
2019-03-05T20:04:24.296Z,70.78
2019-03-05T20:09:25.907Z,71.01
2019-03-05T20:14:27.778Z,71.21
2019-03-05T20:19:29.617Z,71.47
2019-03-05T20:24:31.575Z,71.67
2019-03-05T20:29:33.550Z,72.04
2019-03-05T20:34:35.596Z,72.17
2019-03-05T20:39:37.503Z,72.33
2019-03-05T20:44:40.114Z,72.52
2019-03-05T20:49:42.226Z,72.65
2019-03-05T20:54:43.869Z,72.77
2019-03-05T20:59:45.769Z,72.98
2019-03-05T21:04:47.429Z,72.91
2019-03-05T21:09:49.228Z,72.84
2019-03-05T21:14:50.926Z,73.00
2019-03-05T21:19:52.533Z,73.12
2019-03-05T21:24:54.176Z,73.02
2019-03-05T21:29:55.824Z,73.06
2019-03-05T21:34:57.492Z,73.14
2019-03-05T21:39:59.566Z,73.27
2019-03-05T21:45:03.976Z,73.27
2019-03-05T21:50:07.036Z,73.35
2019-03-05T21:55:08.954Z,73.41
2019-03-05T22:00:19.248Z,73.50
2019-03-05T22:05:20.798Z,73.43
2019-03-05T22:10:22.522Z,73.06
2019-03-05T22:15:24.604Z,73.12
2019-03-05T22:20:26.193Z,72.96
2019-03-05T22:25:29.017Z,72.97
2019-03-05T22:30:31.367Z,72.84
2019-03-05T22:35:32.950Z,72.88
2019-03-05T22:40:34.530Z,72.92
2019-03-05T22:45:36.797Z,73.07
2019-03-05T22:50:38.364Z,73.29
2019-03-05T22:55:40.342Z,73.30
2019-03-05T23:01:05.700Z,73.08
2019-03-05T23:06:07.992Z,73.56
2019-03-05T23:11:09.513Z,73.01
2019-03-05T23:16:11.102Z,73.57
2019-03-05T23:21:12.629Z,73.60
2019-03-05T23:26:14.243Z,73.59
2019-03-05T23:31:15.800Z,73.84
2019-03-05T23:36:17.315Z,74.33
2019-03-05T23:41:18.861Z,74.47
2019-03-05T23:46:20.524Z,74.47
2019-03-05T23:51:22.574Z,74.69
2019-03-05T23:56:24.184Z,75.21
